Borrowash, United Kingdom
Current Conditions -  °F | °C
As of 5:20 PM on Thursday 18 Dec 2014 (Local Time) from EGNX Reporting Station
Broken Clouds Broken Clouds  
Wind Chill: 55°   Ceiling: 1200
Heat Index: 55°   Visibility: 6mi
Dew Point: 52°   Wind: 25mph
Humidity: 88%   Direction: 230°SW
Pressure: 29.65"   Gusts: NA
Location:  52.91°N, 1.38°W
Report Text: EGNX 181720Z 23022KT 9999 BKN012 13/11 Q1004
Loading
Personal Weather Stations






























Interactive Weather Map New forecast layout! Learn more

10-Day Weather Forecast

Advertisements
Track Severe Weather on mobile